LIG weather

Limoges Airport
Limoges/Bellegarde, Limousin, France

Public forecast

Using degrees Celsius for public forecast. Weather courtesy of forecast.io.

METAR (pilot weather report)

Retrieved 2019/07/18 10:30 UTC (29 minutes ago):

LFBL 181030Z AUTO 25007KT 180V310 9999 SCT026 BKN035 19/13 Q1018 NOSIG

TAF (pilot weather forecast)

Retrieved 2019/07/18 06:21 UTC (5 hours ago):

TAF LFBL 180500Z 1806/1906 28008KT 9999 BKN020 BECMG 1811/1813 CAVOK BECMG 1903/1905 VRB02KT BKN005